Time;durP1;ratioP1;P1;durP2;ratioP2;P2;SDS_P1;SDS_P2;PMS_P1;PMS_P2;Temp;Humidity;BMP_temperature;BMP_pressure;BME280_temperature;BME280_humidity;BME280_pressure;Samples;Min_cycle;Max_cycle;Signal;HPM_P1;HPM_P2
2021/08/31 00:00:38;;;;;;;4.37;2.50;;;;;;;17.78;66.71;98094.13;8411085;28;20235;-62
2021/08/31 00:04:42;;;;;;;4.70;2.87;;;;;;;17.77;67.11;98097.66;8345046;28;1131581;-62
2021/08/31 00:08:45;;;;;;;6.13;2.87;;;;;;;17.76;66.78;98109.09;8385628;28;20400;-62
2021/08/31 00:12:48;;;;;;;5.07;2.37;;;;;;;17.81;66.99;98097.44;8385478;28;20222;-62
2021/08/31 00:16:51;;;;;;;4.17;2.63;;;;;;;17.74;66.88;98107.53;8384932;28;20215;-62
2021/08/31 00:20:55;;;;;;;5.13;3.00;;;;;;;17.77;66.99;98099.44;8385066;28;20231;-62
2021/08/31 00:24:58;;;;;;;3.77;2.70;;;;;;;17.74;67.23;98099.66;8385137;28;20204;-62
2021/08/31 00:29:00;;;;;;;3.97;2.77;;;;;;;17.76;67.18;98105.63;8385053;28;20200;-62
2021/08/31 00:33:03;;;;;;;3.17;2.67;;;;;;;17.65;67.66;98108.16;8384725;28;20204;-62
2021/08/31 00:37:07;;;;;;;3.60;2.83;;;;;;;17.76;67.34;98109.09;8384662;28;20200;-62
2021/08/31 00:41:10;;;;;;;3.17;2.80;;;;;;;17.79;67.27;98115.91;8411755;28;20517;-62
2021/08/31 00:45:13;;;;;;;3.53;2.90;;;;;;;17.66;67.78;98118.53;8417761;28;20447;-62
2021/08/31 00:49:16;;;;;;;5.17;2.90;;;;;;;17.70;67.82;98120.00;8417447;28;20219;-62
2021/08/31 00:53:20;;;;;;;7.17;3.00;;;;;;;17.59;67.98;98117.28;8417686;28;20211;-62
2021/08/31 00:57:23;;;;;;;3.00;2.70;;;;;;;17.51;68.26;98130.94;8416882;28;20199;-62
2021/08/31 01:01:26;;;;;;;3.37;2.87;;;;;;;17.42;68.68;98128.97;8418784;28;20227;-62
2021/08/31 01:05:30;;;;;;;4.40;3.10;;;;;;;17.45;68.48;98126.13;8420365;28;20520;-62
2021/08/31 01:09:34;;;;;;;3.20;2.90;;;;;;;17.30;68.89;98133.25;8419932;28;20199;-62
2021/08/31 01:13:39;;;;;;;3.40;3.10;;;;;;;17.27;69.16;98135.25;8420313;28;20207;-62
2021/08/31 01:17:42;;;;;;;5.00;2.83;;;;;;;17.32;69.43;98123.53;8420254;28;20222;-62
2021/08/31 01:21:44;;;;;;;3.50;3.20;;;;;;;17.45;68.63;98123.50;8419965;28;20249;-62
2021/08/31 01:25:49;;;;;;;4.10;3.20;;;;;;;17.43;69.00;98121.97;8419978;28;20199;-62
2021/08/31 01:29:53;;;;;;;4.63;3.00;;;;;;;17.41;69.10;98129.91;8419826;28;20436;-62
2021/08/31 01:33:55;;;;;;;3.37;3.10;;;;;;;17.44;68.97;98129.72;8419713;28;20211;-62
2021/08/31 01:37:58;;;;;;;3.83;3.07;;;;;;;17.32;69.50;98138.41;8419396;28;20199;-62
2021/08/31 01:42:03;;;;;;;3.93;2.73;;;;;;;17.39;68.86;98142.28;8419371;28;20530;-62
2021/08/31 01:46:05;;;;;;;4.53;3.00;;;;;;;17.36;69.37;98143.34;8419348;28;20206;-62
2021/08/31 01:50:09;;;;;;;4.43;3.10;;;;;;;17.38;69.24;98141.44;8419043;28;20219;-62
2021/08/31 01:54:12;;;;;;;4.70;2.90;;;;;;;17.39;69.35;98135.25;8419442;28;20203;-63
2021/08/31 01:58:17;;;;;;;3.50;2.80;;;;;;;17.41;68.95;98135.16;8418779;28;20199;-63
2021/08/31 02:02:20;;;;;;;4.83;3.30;;;;;;;17.37;69.23;98137.13;8418743;28;20230;-62
2021/08/31 02:06:23;;;;;;;4.90;3.40;;;;;;;17.44;68.95;98134.09;8418689;28;20199;-62
2021/08/31 02:10:26;;;;;;;3.50;3.20;;;;;;;17.41;69.32;98137.75;8418602;28;20393;-62
2021/08/31 02:14:30;;;;;;;5.23;3.07;;;;;;;17.45;69.12;98136.59;8418635;28;20493;-62
2021/08/31 02:18:33;;;;;;;3.23;2.87;;;;;;;17.58;68.29;98126.13;8418252;28;20199;-62
2021/08/31 02:22:36;;;;;;;4.23;2.80;;;;;;;17.46;69.12;98122.56;8417483;28;20556;-62
2021/08/31 02:26:39;;;;;;;4.50;3.23;;;;;;;17.51;68.60;98130.94;8418329;28;20528;-62
2021/08/31 02:30:43;;;;;;;6.30;3.13;;;;;;;17.42;69.11;98126.38;8417881;28;20199;-62
2021/08/31 02:34:46;;;;;;;4.20;3.07;;;;;;;17.37;69.19;98120.59;8417578;28;20203;-62
2021/08/31 02:38:49;;;;;;;4.20;2.77;;;;;;;17.56;68.61;98128.00;8417281;28;20199;-62
2021/08/31 02:42:52;;;;;;;3.87;3.13;;;;;;;17.36;69.03;98122.38;8417434;28;20226;-62
2021/08/31 02:46:56;;;;;;;4.90;2.90;;;;;;;17.45;68.69;98127.91;8417657;28;20389;-62
2021/08/31 02:50:59;;;;;;;5.63;3.30;;;;;;;17.34;69.14;98131.28;8417244;28;20230;-62
2021/08/31 02:55:01;;;;;;;5.10;3.50;;;;;;;17.32;69.58;98141.00;8416852;28;20203;-62
2021/08/31 02:59:05;;;;;;;7.17;3.40;;;;;;;17.32;69.62;98143.63;8416958;28;20203;-62
2021/08/31 03:03:09;;;;;;;5.20;3.00;;;;;;;17.36;69.11;98143.34;8416483;28;20238;-62
2021/08/31 03:07:13;;;;;;;4.00;3.00;;;;;;;17.32;69.21;98144.47;8416797;28;20217;-62
2021/08/31 03:11:16;;;;;;;3.37;2.83;;;;;;;17.32;68.90;98138.41;8416943;28;20206;-62
2021/08/31 03:15:18;;;;;;;3.80;2.90;;;;;;;17.25;69.30;98140.63;8416603;28;20387;-62
2021/08/31 03:19:24;;;;;;;4.90;2.90;;;;;;;17.34;69.03;98144.34;8416537;28;20199;-62
2021/08/31 03:23:27;;;;;;;3.27;2.97;;;;;;;17.30;68.99;98148.13;8416233;28;20222;-62
2021/08/31 03:27:30;;;;;;;4.57;3.37;;;;;;;17.37;68.81;98154.63;8416576;28;20222;-62
2021/08/31 03:31:32;;;;;;;4.53;3.10;;;;;;;17.47;68.67;98162.69;8416303;28;20213;-62
2021/08/31 03:35:37;;;;;;;3.90;2.80;;;;;;;17.42;68.51;98160.41;8416113;28;20207;-62
2021/08/31 03:39:39;;;;;;;4.47;2.80;;;;;;;17.41;68.38;98165.72;8415943;28;20222;-62
2021/08/31 03:43:42;;;;;;;4.30;3.20;;;;;;;17.29;68.82;98173.47;8416054;28;20553;-62
2021/08/31 03:47:45;;;;;;;4.30;3.10;;;;;;;17.35;68.82;98164.38;8415938;28;20206;-62
2021/08/31 03:51:49;;;;;;;5.30;3.50;;;;;;;17.26;69.20;98176.28;8415842;28;20219;-62
2021/08/31 03:55:52;;;;;;;3.87;3.30;;;;;;;17.25;68.74;98172.03;8415745;28;20199;-62
2021/08/31 03:59:55;;;;;;;7.90;3.70;;;;;;;17.22;68.58;98187.09;8415886;28;20386;-62
2021/08/31 04:03:57;;;;;;;4.50;3.73;;;;;;;17.19;68.70;98182.88;8415791;28;20235;-62
2021/08/31 04:08:01;;;;;;;5.60;3.40;;;;;;;17.25;68.15;98190.34;8415635;28;20199;-62
2021/08/31 04:12:05;;;;;;;9.67;3.60;;;;;;;17.17;68.25;98197.84;8415563;28;20199;-62
2021/08/31 04:16:08;;;;;;;5.53;3.60;;;;;;;17.05;68.97;98198.69;8415530;28;20203;-62
2021/08/31 04:20:12;;;;;;;4.33;3.93;;;;;;;17.03;68.79;98203.19;8415708;28;20206;-62
2021/08/31 04:24:16;;;;;;;6.87;4.23;;;;;;;16.97;68.51;98207.88;8415487;28;20348;-62
2021/08/31 04:28:23;;;;;;;5.80;4.30;;;;;;;16.87;68.47;98219.91;8415378;28;20516;-62
2021/08/31 04:32:26;;;;;;;5.73;4.13;;;;;;;16.81;68.91;98223.75;8415256;28;20199;-62
2021/08/31 04:36:29;;;;;;;6.33;4.63;;;;;;;16.79;69.15;98230.84;8415266;28;20224;-62
2021/08/31 04:40:33;;;;;;;6.83;4.30;;;;;;;16.73;68.70;98233.84;8415073;28;20200;-62
2021/08/31 04:44:36;;;;;;;7.67;4.83;;;;;;;16.77;68.50;98232.72;8416941;28;20231;-62
2021/08/31 04:48:39;;;;;;;6.80;4.90;;;;;;;16.68;68.91;98227.22;8421047;28;20218;-62
2021/08/31 04:52:42;;;;;;;6.90;4.93;;;;;;;16.87;68.21;98235.59;8421092;28;20207;-62
2021/08/31 04:56:46;;;;;;;6.13;4.50;;;;;;;16.92;68.20;98233.50;8420752;28;20206;-62
2021/08/31 05:00:49;;;;;;;7.00;5.07;;;;;;;16.88;67.86;98225.97;8420576;28;20199;-62
2021/08/31 05:04:52;;;;;;;6.03;4.87;;;;;;;16.89;67.72;98227.66;8420491;28;20508;-62
2021/08/31 05:08:55;;;;;;;8.07;5.77;;;;;;;16.92;67.15;98236.13;8420272;28;20266;-62
2021/08/31 05:12:59;;;;;;;8.70;5.27;;;;;;;16.85;67.85;98255.78;8420437;28;20490;-62
2021/08/31 05:17:02;;;;;;;6.33;5.10;;;;;;;17.00;67.48;98248.69;8421913;28;20227;-62
2021/08/31 05:21:05;;;;;;;6.77;5.20;;;;;;;17.03;67.10;98264.19;8450802;28;20195;-62
2021/08/31 05:25:08;;;;;;;8.63;5.20;;;;;;;17.08;66.51;98266.53;8453438;28;20221;-62
2021/08/31 05:29:12;;;;;;;7.60;5.30;;;;;;;17.11;67.02;98269.75;8453400;28;20205;-62
2021/08/31 05:33:15;;;;;;;10.47;6.00;;;;;;;17.05;66.87;98270.16;8449987;28;20203;-63
2021/08/31 05:37:18;;;;;;;7.40;5.50;;;;;;;17.15;66.88;98275.63;8435468;28;20191;-62
2021/08/31 05:41:21;;;;;;;7.47;6.40;;;;;;;16.94;67.85;98278.72;8436020;28;20195;-62
2021/08/31 05:45:25;;;;;;;8.23;5.40;;;;;;;16.91;68.03;98285.94;8435181;28;20219;-62
2021/08/31 05:49:29;;;;;;;6.63;6.03;;;;;;;16.99;67.68;98294.13;8422628;28;20226;-62
2021/08/31 05:53:32;;;;;;;6.80;5.73;;;;;;;16.98;67.98;98292.44;8418908;28;20202;-62
2021/08/31 05:57:36;;;;;;;10.13;6.20;;;;;;;16.96;68.01;98291.69;8417693;28;20269;-63
2021/08/31 06:01:40;;;;;;;10.00;6.20;;;;;;;17.00;67.95;98290.56;8421135;28;20199;-62
2021/08/31 06:05:55;;;;;;;9.10;6.33;;;;;;;16.90;68.04;98294.72;8417392;28;20239;-63
2021/08/31 06:09:58;;;;;;;10.10;6.30;;;;;;;16.93;68.62;98297.97;8418656;28;20494;-62
2021/08/31 06:14:01;;;;;;;7.87;5.57;;;;;;;17.14;67.93;98295.72;8418603;28;20389;-63
2021/08/31 06:18:05;;;;;;;6.70;6.03;;;;;;;17.14;68.12;98287.06;8418122;28;20569;-63
2021/08/31 06:22:08;;;;;;;9.77;6.23;;;;;;;17.14;67.95;98300.97;8418161;28;20199;-63
2021/08/31 06:26:11;;;;;;;10.90;5.60;;;;;;;17.10;68.15;98309.97;8417992;28;20230;-63
2021/08/31 06:30:14;;;;;;;8.53;6.73;;;;;;;17.08;68.16;98317.06;8417883;28;20199;-63
2021/08/31 06:34:23;;;;;;;8.33;5.73;;;;;;;17.02;68.42;98320.09;8418054;28;20229;-62
2021/08/31 06:38:26;;;;;;;9.17;6.03;;;;;;;17.19;67.81;98321.59;8417442;28;20201;-62
2021/08/31 06:42:28;;;;;;;9.17;5.77;;;;;;;17.30;67.83;98316.47;8417801;28;20199;-62
2021/08/31 06:46:31;;;;;;;6.70;6.00;;;;;;;17.32;68.03;98317.22;8417496;28;20233;-62
2021/08/31 06:50:47;;;;;;;11.53;6.00;;;;;;;17.42;67.43;98319.22;8417056;28;20219;-62
2021/08/31 06:54:50;;;;;;;6.60;5.80;;;;;;;17.54;66.84;98328.91;8417253;28;20403;-62
2021/08/31 06:58:52;;;;;;;5.90;5.40;;;;;;;17.43;67.52;98326.97;8416897;28;20199;-62
2021/08/31 07:02:55;;;;;;;7.53;5.40;;;;;;;17.55;66.92;98326.19;8416571;28;21311;-62
2021/08/31 07:06:59;;;;;;;8.20;5.03;;;;;;;17.77;66.63;98324.72;8416719;28;20397;-62
2021/08/31 07:11:02;;;;;;;7.10;4.90;;;;;;;17.77;66.25;98335.19;8416596;28;20217;-62
2021/08/31 07:15:08;;;;;;;9.97;5.37;;;;;;;17.79;66.57;98341.16;8416534;28;20211;-62
2021/08/31 07:19:11;;;;;;;5.53;4.60;;;;;;;17.89;65.65;98338.78;8416540;28;20199;-63
2021/08/31 07:23:15;;;;;;;6.20;5.10;;;;;;;17.88;65.26;98343.19;8416310;28;20382;-62
2021/08/31 07:27:18;;;;;;;6.63;4.83;;;;;;;18.04;65.06;98347.38;8416387;28;20210;-62
2021/08/31 07:31:21;;;;;;;6.33;4.90;;;;;;;18.30;64.66;98350.81;8416432;28;20205;-62
2021/08/31 07:35:24;;;;;;;9.73;5.60;;;;;;;18.99;62.51;98355.59;8416171;28;20206;-62
2021/08/31 07:39:28;;;;;;;7.13;4.77;;;;;;;19.45;61.75;98353.03;8416060;28;20199;-62
2021/08/31 07:43:31;;;;;;;7.07;4.97;;;;;;;19.24;61.95;98350.19;8416044;28;20226;-62
2021/08/31 07:47:33;;;;;;;6.13;4.93;;;;;;;19.00;61.67;98359.88;8416241;28;20199;-63
2021/08/31 07:51:36;;;;;;;6.37;4.90;;;;;;;19.01;61.86;98364.19;8414774;28;20214;-61
2021/08/31 07:55:40;;;;;;;7.27;4.87;;;;;;;18.93;62.42;98370.00;8415464;28;20230;-62
2021/08/31 07:59:43;;;;;;;5.53;4.97;;;;;;;18.89;62.96;98371.16;8415514;28;20199;-62
2021/08/31 08:03:46;;;;;;;6.67;4.90;;;;;;;18.72;62.62;98377.59;8415369;28;20240;-62
2021/08/31 08:07:49;;;;;;;6.07;4.80;;;;;;;18.58;62.26;98382.97;8415705;28;20211;-61
2021/08/31 08:11:53;;;;;;;6.53;4.53;;;;;;;18.56;63.18;98380.44;8415820;28;20199;-61
2021/08/31 08:15:56;;;;;;;5.87;4.67;;;;;;;18.62;62.80;98379.16;8415616;28;20203;-61
2021/08/31 08:19:59;;;;;;;5.70;4.70;;;;;;;18.82;61.75;98383.88;8418149;28;20253;-62
2021/08/31 08:24:01;;;;;;;7.73;4.73;;;;;;;18.97;61.50;98384.56;8421904;28;20231;-62
2021/08/31 08:28:06;;;;;;;6.33;4.87;;;;;;;18.92;60.94;98374.41;8424278;28;20191;-62
2021/08/31 08:32:10;;;;;;;5.80;4.70;;;;;;;18.91;61.19;98380.59;8421631;28;20199;-62
2021/08/31 08:36:13;;;;;;;4.83;4.30;;;;;;;19.18;60.48;98390.03;8421565;28;20203;-62
2021/08/31 08:40:16;;;;;;;6.60;4.70;;;;;;;18.97;59.29;98383.72;8421221;28;20203;-62
2021/08/31 08:44:20;;;;;;;5.10;4.43;;;;;;;18.89;59.25;98377.25;8420611;28;20409;-62
2021/08/31 08:48:25;;;;;;;5.30;4.80;;;;;;;19.01;59.16;98374.69;8419964;28;20549;-63
2021/08/31 08:52:34;;;;;;;4.93;4.43;;;;;;;19.24;57.30;98389.59;8420180;28;20280;-64
2021/08/31 08:56:37;;;;;;;5.17;4.40;;;;;;;19.27;56.72;98391.16;8419874;28;20195;-64
2021/08/31 09:01:00;;;;;;;5.57;4.30;;;;;;;20.24;54.49;98387.38;8416922;28;20214;-67
2021/08/31 09:05:04;;;;;;;9.87;4.93;;;;;;;21.42;52.92;98385.03;8417376;28;20538;-64
2021/08/31 09:09:08;;;;;;;5.70;4.30;;;;;;;21.46;50.34;98389.13;8420141;28;20200;-64
2021/08/31 09:13:12;;;;;;;6.03;4.53;;;;;;;21.34;52.02;98392.72;8419408;28;20303;-64
2021/08/31 09:17:18;;;;;;;5.33;4.07;;;;;;;21.23;51.51;98404.16;8419447;28;20381;-64
2021/08/31 09:21:22;;;;;;;5.73;4.80;;;;;;;20.86;52.82;98417.63;8419410;28;20198;-64
2021/08/31 09:25:32;;;;;;;8.40;4.70;;;;;;;20.45;53.38;98413.81;8419185;28;20221;-64
2021/08/31 09:29:38;;;;;;;6.03;4.40;;;;;;;20.75;53.01;98415.00;8417310;28;20201;-64
2021/08/31 09:33:44;;;;;;;7.13;4.60;;;;;;;21.02;53.45;98417.25;8419071;28;20486;-64
2021/08/31 09:37:49;;;;;;;8.20;4.95;;;;;;;21.79;51.17;98418.91;8415164;28;20418;-60
2021/08/31 09:41:52;;;;;;;6.23;4.60;;;;;;;21.91;50.46;98414.41;8418530;28;20229;-60
2021/08/31 09:45:56;;;;;;;5.10;4.50;;;;;;;21.44;50.62;98412.13;8419111;28;20219;-60
2021/08/31 09:50:01;;;;;;;4.63;4.20;;;;;;;21.17;51.61;98415.19;8419338;28;20219;-60
2021/08/31 09:54:22;;;;;;;7.37;4.60;;;;;;;20.87;50.96;98411.41;8419330;28;20218;-60
2021/08/31 09:58:26;;;;;;;5.30;4.53;;;;;;;20.77;52.07;98414.88;8419099;28;20199;-60
2021/08/31 10:02:29;;;;;;;6.70;4.37;;;;;;;20.71;52.94;98418.84;8418783;28;20203;-59
2021/08/31 10:06:33;;;;;;;5.17;4.20;;;;;;;20.67;54.06;98427.94;8418639;28;20419;-60
2021/08/31 10:10:38;;;;;;;14.23;4.60;;;;;;;20.91;52.59;98427.81;8418777;28;20203;-60
2021/08/31 10:14:43;;;;;;;5.70;5.03;;;;;;;21.01;52.55;98427.91;8418543;28;20210;-60
2021/08/31 10:18:46;;;;;;;4.83;4.10;;;;;;;20.92;52.89;98432.09;8418606;28;20306;-60
2021/08/31 10:22:50;;;;;;;8.57;4.87;;;;;;;20.63;53.44;98434.41;8418339;28;20486;-58
2021/08/31 10:26:53;;;;;;;7.23;5.00;;;;;;;20.71;52.27;98432.00;8417976;28;20237;-58
2021/08/31 10:30:57;;;;;;;6.83;4.80;;;;;;;20.58;53.67;98436.50;8417232;28;20191;-59
2021/08/31 10:34:59;;;;;;;6.90;4.60;;;;;;;21.25;49.89;98438.28;8416938;28;20195;-59
2021/08/31 10:39:07;;;;;;;5.57;4.90;;;;;;;20.43;51.16;98433.31;8413728;28;20205;-59
2021/08/31 10:43:11;;;;;;;6.93;5.00;;;;;;;20.32;52.42;98452.53;8415960;28;20198;-59
2021/08/31 10:47:19;;;;;;;5.40;4.87;;;;;;;20.47;52.58;98447.88;8416512;28;20230;-59
2021/08/31 10:51:22;;;;;;;6.83;4.47;;;;;;;20.58;52.51;98444.41;8417143;28;20228;-59
2021/08/31 10:55:40;;;;;;;4.73;4.23;;;;;;;20.40;51.86;98450.16;8417034;28;20213;-58
2021/08/31 10:59:43;;;;;;;5.60;4.50;;;;;;;20.58;52.39;98450.53;8416959;28;20208;-58
2021/08/31 11:03:47;;;;;;;6.70;4.70;;;;;;;20.59;52.03;98443.47;8416635;28;20234;-65
2021/08/31 11:07:51;;;;;;;6.13;5.00;;;;;;;20.57;52.45;98459.38;8416855;28;20526;-64
2021/08/31 11:12:05;;;;;;;7.23;4.47;;;;;;;20.38;52.80;98454.69;8416750;28;20206;-64
2021/08/31 11:16:08;;;;;;;10.27;5.63;;;;;;;20.64;52.28;98454.50;8416538;28;20212;-64
2021/08/31 11:20:20;;;;;;;9.43;5.90;;;;;;;20.77;52.24;98449.09;8416278;28;20199;-64
2021/08/31 11:24:23;;;;;;;7.87;4.47;;;;;;;20.61;53.40;98454.72;8416402;28;20204;-64
2021/08/31 11:28:28;;;;;;;7.60;4.17;;;;;;;20.58;53.25;98450.53;8416224;28;20220;-64
2021/08/31 11:32:33;;;;;;;5.23;4.63;;;;;;;20.72;53.72;98453.91;8416328;28;20202;-64
2021/08/31 11:36:37;;;;;;;5.57;4.77;;;;;;;20.65;52.46;98456.16;8416447;28;20383;-65
2021/08/31 11:40:42;;;;;;;4.20;3.80;;;;;;;21.19;51.63;98449.28;8415954;28;20199;-65
2021/08/31 11:44:58;;;;;;;4.90;4.10;;;;;;;21.07;52.06;98453.72;8416108;28;20231;-65
2021/08/31 11:49:09;;;;;;;6.57;4.57;;;;;;;20.89;51.01;98456.03;8416037;28;20252;-64
2021/08/31 11:53:16;;;;;;;6.30;4.27;;;;;;;21.01;51.20;98454.22;8416707;28;20191;-64
2021/08/31 11:57:20;;;;;;;5.80;4.43;;;;;;;21.59;50.65;98457.47;8422857;28;20203;-65
2021/08/31 12:01:29;;;;;;;4.60;4.20;;;;;;;22.81;48.38;98453.38;8422547;28;20206;-59
2021/08/31 12:05:32;;;;;;;5.90;4.70;;;;;;;22.98;48.11;98446.63;8422119;28;20235;-59
2021/08/31 12:09:36;;;;;;;5.97;4.33;;;;;;;;;;8422607;28;20381;-59
2021/08/31 12:13:42;;;;;;;6.33;4.23;;;;;;;23.00;46.19;98451.75;8422344;28;20241;-59
2021/08/31 12:17:46;;;;;;;7.20;4.70;;;;;;;22.74;47.40;98460.13;8421742;28;20206;-59
2021/08/31 12:22:08;;;;;;;7.93;4.30;;;;;;;22.41;48.18;98459.44;8422024;28;20199;-59
2021/08/31 12:26:27;;;;;;;5.10;4.47;;;;;;;22.24;48.02;98462.66;8421652;28;20320;-59
2021/08/31 12:30:36;;;;;;;4.80;4.33;;;;;;;21.64;49.07;98476.34;8421385;28;20512;-59
2021/08/31 12:34:40;;;;;;;4.90;4.10;;;;;;;21.55;49.99;98474.50;8421798;28;20201;-59
2021/08/31 12:38:46;;;;;;;7.50;4.53;;;;;;;21.44;50.86;98474.53;8421443;28;20206;-59
2021/08/31 12:42:50;;;;;;;4.53;4.13;;;;;;;21.45;51.69;98471.75;8421330;28;20205;-59
2021/08/31 12:47:07;;;;;;;5.20;4.33;;;;;;;21.39;50.17;98469.59;8421078;28;20233;-59
2021/08/31 12:51:11;;;;;;;7.10;4.43;;;;;;;21.56;51.02;98468.25;8420445;28;20417;-59
2021/08/31 12:55:15;;;;;;;5.70;4.50;;;;;;;21.59;51.63;98465.38;8420782;28;20199;-59
2021/08/31 12:59:30;;;;;;;5.83;4.30;;;;;;;21.68;50.86;98463.75;8420180;28;20507;-59
2021/08/31 13:03:33;;;;;;;12.13;4.87;;;;;;;21.47;50.61;98472.44;8419567;28;20233;-59
2021/08/31 13:07:38;;;;;;;6.97;4.43;;;;;;;21.60;51.68;98467.03;8419136;28;20223;-59
2021/08/31 13:11:42;;;;;;;6.17;4.83;;;;;;;21.72;52.62;98467.81;8420197;28;20220;-59
2021/08/31 13:15:45;;;;;;;6.77;4.47;;;;;;;21.92;50.85;98455.63;8419325;28;20191;-58
2021/08/31 13:19:47;;;;;;;6.83;4.67;;;;;;;21.97;51.83;98449.97;8416990;28;20195;-59
2021/08/31 13:23:52;;;;;;;5.57;4.40;;;;;;;22.13;50.60;98446.91;8419397;28;20203;-59
2021/08/31 13:27:54;;;;;;;4.70;4.30;;;;;;;22.10;49.06;98449.78;8416564;28;20218;-59
2021/08/31 13:31:57;;;;;;;6.97;4.57;;;;;;;21.67;49.95;98439.22;8418991;28;20382;-59
2021/08/31 13:36:00;;;;;;;5.83;4.63;;;;;;;21.49;51.15;98438.09;8418880;28;20202;-59
2021/08/31 13:40:06;;;;;;;5.03;4.50;;;;;;;21.50;50.32;98433.69;8419721;28;20206;-64
2021/08/31 13:44:09;;;;;;;4.97;4.47;;;;;;;22.27;50.45;98437.84;8419437;28;20490;-64
2021/08/31 13:48:12;;;;;;;6.80;4.57;;;;;;;22.92;46.83;98426.00;8419431;28;20230;-65
2021/08/31 13:52:15;;;;;;;4.70;4.10;;;;;;;23.06;46.47;98424.00;8419088;28;20262;-65
2021/08/31 13:56:19;;;;;;;9.43;4.40;;;;;;;23.02;44.06;98418.13;8418076;28;20203;-64
2021/08/31 14:00:23;;;;;;;6.33;4.33;;;;;;;22.70;45.68;98429.69;8418070;28;20296;-65
2021/08/31 14:04:26;;;;;;;14.90;4.60;;;;;;;22.00;46.69;98434.72;8418010;28;20570;-65
2021/08/31 14:08:29;;;;;;;5.13;4.10;;;;;;;21.80;48.27;98433.78;8417887;28;20241;-64
2021/08/31 14:12:33;;;;;;;6.53;3.97;;;;;;;22.72;46.40;98432.22;8415282;28;20198;-65
2021/08/31 14:16:36;;;;;;;4.80;4.33;;;;;;;22.16;46.99;98443.97;8416646;28;20251;-65
2021/08/31 14:20:39;;;;;;;5.73;3.90;;;;;;;22.77;45.37;98433.47;8417479;28;20234;-64
2021/08/31 14:24:42;;;;;;;10.57;4.23;;;;;;;22.87;45.66;98437.97;8417324;28;20221;-65
2021/08/31 14:28:46;;;;;;;4.27;3.87;;;;;;;23.15;45.54;98433.72;8417157;28;20724;-64
2021/08/31 14:32:49;;;;;;;5.07;4.20;;;;;;;23.51;46.05;98426.13;8417016;28;20203;-64
2021/08/31 14:36:51;;;;;;;6.77;4.10;;;;;;;23.40;44.28;98432.41;8414300;28;20196;-65
2021/08/31 14:40:54;;;;;;;4.70;4.20;;;;;;;23.16;45.01;98430.97;8416816;28;20230;-65
2021/08/31 14:44:58;;;;;;;5.63;4.20;;;;;;;22.63;46.59;98434.66;8416766;28;20202;-65
2021/08/31 14:49:01;;;;;;;5.93;4.03;;;;;;;22.89;46.48;98430.75;8416442;28;20541;-64
2021/08/31 14:53:04;;;;;;;7.67;4.57;;;;;;;22.65;47.37;98426.63;8417194;28;20195;-66
2021/08/31 14:57:07;;;;;;;4.83;4.13;;;;;;;22.77;48.11;98433.47;8417098;28;20209;-65
2021/08/31 15:01:16;;;;;;;4.47;3.90;;;;;;;22.29;47.24;98431.44;8417158;28;20199;-64
2021/08/31 15:05:19;;;;;;;4.27;3.80;;;;;;;22.06;48.52;98434.19;8416795;28;20302;-65
2021/08/31 15:13:50;;;;;;;5.47;4.20;;;;;;;21.60;49.83;98434.56;8317247;28;20258;-90
2021/08/31 15:17:54;;;;;;;4.50;4.10;;;;;;;21.43;49.00;98441.19;8319113;28;20214;-89
2021/08/31 15:21:57;;;;;;;5.53;4.27;;;;;;;21.23;49.82;98442.81;8312848;28;20208;-89
2021/08/31 15:26:00;;;;;;;4.80;4.30;;;;;;;21.11;49.05;98436.72;8301242;28;20204;-89
2021/08/31 15:30:04;;;;;;;6.00;4.30;;;;;;;21.11;50.02;98433.25;8300985;28;20198;-90
2021/08/31 15:34:10;;;;;;;4.45;4.05;;;;;;;21.31;49.92;98429.88;8305338;28;20479;-89
2021/08/31 15:38:13;;;;;;;6.13;4.40;;;;;;;21.12;50.66;98432.31;8318884;28;20599;-88
2021/08/31 15:42:16;;;;;;;4.57;4.10;;;;;;;21.03;51.39;98423.34;8317372;28;20228;-88
2021/08/31 15:46:20;;;;;;;4.50;4.10;;;;;;;21.05;51.49;98437.22;8302020;28;20224;-88
2021/08/31 15:50:24;;;;;;;6.10;4.60;;;;;;;21.12;52.29;98442.84;8304338;28;20519;-89
2021/08/31 15:54:27;;;;;;;9.27;4.30;;;;;;;21.12;52.44;98445.47;8303369;28;20203;-89
2021/08/31 15:58:30;;;;;;;6.80;4.37;;;;;;;21.14;52.63;98448.81;8301259;28;20200;-89
2021/08/31 16:02:33;;;;;;;6.80;5.00;;;;;;;21.24;52.62;98449.75;8291869;28;20399;-89
2021/08/31 16:06:40;;;;;;;6.17;4.70;;;;;;;21.17;53.14;98451.19;8304249;28;20228;-89
2021/08/31 16:10:43;;;;;;;4.67;3.93;;;;;;;21.14;52.47;98447.03;8301279;28;20229;-89
2021/08/31 16:14:46;;;;;;;8.93;4.17;;;;;;;21.13;52.68;98447.13;8287838;28;20382;-87
2021/08/31 16:18:48;;;;;;;6.93;4.50;;;;;;;21.12;52.76;98441.03;8285333;28;20241;-88
2021/08/31 16:22:53;;;;;;;4.57;4.00;;;;;;;21.06;52.69;98434.47;8284815;28;20498;-88
2021/08/31 16:26:56;;;;;;;6.30;4.50;;;;;;;21.06;52.90;98433.66;8286360;28;20226;-88
2021/08/31 16:30:58;;;;;;;8.50;4.27;;;;;;;21.03;52.14;98434.72;8287539;28;20201;-88
2021/08/31 16:35:01;;;;;;;7.13;4.63;;;;;;;20.98;52.06;98442.16;8298195;28;20201;-88
2021/08/31 16:39:05;;;;;;;5.77;4.37;;;;;;;20.59;53.44;98454.00;8318535;28;20367;-89
2021/08/31 16:43:08;;;;;;;5.97;4.20;;;;;;;20.64;54.19;98452.72;8338835;28;20189;-86
2021/08/31 16:47:11;;;;;;;4.87;4.37;;;;;;;20.60;55.83;98459.16;8338395;28;20229;-88
2021/08/31 16:51:14;;;;;;;4.93;4.23;;;;;;;20.63;56.63;98453.66;8323455;28;20206;-88
2021/08/31 16:55:18;;;;;;;5.10;4.63;;;;;;;20.67;56.52;98460.34;8322752;28;20205;-87
2021/08/31 16:59:21;;;;;;;5.10;4.40;;;;;;;20.64;57.05;98465.03;8321959;28;20205;-88
2021/08/31 17:03:25;;;;;;;4.70;4.23;;;;;;;20.61;57.27;98460.00;8322736;28;20496;-88
2021/08/31 17:07:28;;;;;;;5.60;4.33;;;;;;;20.47;57.43;98458.41;8323878;28;20242;-88
2021/08/31 17:11:32;;;;;;;5.30;4.13;;;;;;;20.44;56.54;98463.91;8322713;28;20252;-89
2021/08/31 17:15:35;;;;;;;5.70;4.50;;;;;;;20.37;56.78;98471.44;8322745;28;20216;-87
2021/08/31 17:19:38;;;;;;;7.40;4.63;;;;;;;20.14;57.93;98477.59;8321892;28;20202;-88
2021/08/31 17:23:41;;;;;;;5.87;4.13;;;;;;;20.19;58.67;98480.72;8321667;28;20202;-89
2021/08/31 17:27:45;;;;;;;5.17;4.67;;;;;;;20.22;57.93;98478.69;8321699;28;20249;-89
2021/08/31 17:31:49;;;;;;;5.00;4.50;;;;;;;20.19;57.66;98478.91;8323497;28;20202;-92
2021/08/31 17:35:52;;;;;;;7.73;4.33;;;;;;;20.06;57.45;98484.25;8324283;28;20210;-91
2021/08/31 17:39:55;;;;;;;4.70;4.27;;;;;;;20.08;56.86;98482.34;8323367;28;20207;-89
2021/08/31 17:43:59;;;;;;;5.57;4.40;;;;;;;20.11;57.18;98486.56;8323317;28;20207;-94
2021/08/31 17:48:02;;;;;;;7.57;4.67;;;;;;;20.05;56.80;98487.03;8321907;28;20231;-90
2021/08/31 17:52:06;;;;;;;5.23;4.40;;;;;;;19.99;56.43;98488.31;8321339;28;20215;-93
2021/08/31 17:56:09;;;;;;;5.70;4.13;;;;;;;19.98;56.03;98497.16;8321122;28;20211;-89
2021/08/31 18:00:15;;;;;;;4.67;4.23;;;;;;;19.96;56.07;98503.47;8320944;28;20209;-89
2021/08/31 18:04:18;;;;;;;6.17;4.60;;;;;;;19.86;56.59;98516.47;8320600;28;20230;-91
2021/08/31 18:08:20;;;;;;;6.10;4.47;;;;;;;19.86;56.49;98525.19;8320288;28;20224;-89
2021/08/31 18:12:25;;;;;;;5.70;4.33;;;;;;;19.72;56.57;98522.72;8320386;28;20566;-90
2021/08/31 18:16:29;;;;;;;6.57;4.70;;;;;;;19.78;56.67;98537.19;8321430;28;20202;-90
2021/08/31 18:20:32;;;;;;;6.17;4.57;;;;;;;19.81;56.77;98537.81;8321497;28;20202;-90
2021/08/31 18:24:35;;;;;;;7.50;4.97;;;;;;;19.71;56.66;98545.50;8320340;28;20495;-90
2021/08/31 18:28:38;;;;;;;6.97;4.50;;;;;;;19.58;57.08;98546.50;8320175;28;20226;-91
2021/08/31 18:32:42;;;;;;;4.47;4.03;;;;;;;19.61;56.96;98548.91;8319859;28;20206;-93
2021/08/31 18:36:45;;;;;;;5.40;4.90;;;;;;;19.36;56.86;98558.53;8319652;28;20308;-87
2021/08/31 18:40:48;;;;;;;6.20;4.43;;;;;;;19.46;56.13;98559.56;8316460;28;20417;-86
2021/08/31 18:44:51;;;;;;;6.60;4.73;;;;;;;19.29;55.95;98558.16;8297379;28;20198;-87
2021/08/31 18:48:55;;;;;;;5.00;4.20;;;;;;;19.37;55.66;98562.84;8306036;28;20225;-87
2021/08/31 18:52:59;;;;;;;5.07;4.53;;;;;;;19.33;55.76;98571.91;8294284;28;20216;-87
2021/08/31 18:57:03;;;;;;;5.50;4.20;;;;;;;19.25;55.49;98561.09;8294835;28;20214;-87
2021/08/31 19:01:05;;;;;;;4.53;4.10;;;;;;;19.31;55.23;98572.00;8320521;28;20428;-87
2021/08/31 19:05:11;;;;;;;5.73;4.23;;;;;;;19.36;55.37;98571.66;8324499;28;20221;-90
2021/08/31 19:09:14;;;;;;;8.07;4.40;;;;;;;19.30;55.25;98579.97;8327447;28;20226;-96
2021/08/31 19:13:17;;;;;;;5.63;4.03;;;;;;;19.37;55.23;98575.97;8314175;28;20232;-93